createdAt,value
2019-02-17T00:01:27.166Z,20.12
2019-02-17T00:03:57.015Z,21.03
2019-02-17T00:06:26.720Z,20.50
2019-02-17T00:08:56.406Z,20.63
2019-02-17T00:11:26.040Z,21.80
2019-02-17T00:13:57.723Z,21.63
2019-02-17T00:16:27.391Z,20.60
2019-02-17T00:18:57.058Z,21.67
2019-02-17T00:21:26.733Z,22.57
2019-02-17T00:23:56.461Z,23.17
2019-02-17T00:26:26.407Z,23.40
2019-02-17T00:28:59.488Z,23.57
2019-02-17T00:31:27.494Z,24.37
2019-02-17T00:33:57.120Z,23.50
2019-02-17T00:36:26.815Z,23.37
2019-02-17T00:38:56.455Z,23.85
2019-02-17T00:41:26.225Z,24.90
2019-02-17T00:43:56.198Z,25.27
2019-02-17T00:46:25.871Z,25.35
2019-02-17T00:48:55.673Z,23.37
2019-02-17T00:51:25.318Z,25.95
2019-02-17T00:53:55.475Z,25.27
2019-02-17T00:56:25.155Z,25.67
2019-02-17T00:58:54.910Z,25.70
2019-02-17T01:01:24.559Z,25.88
2019-02-17T01:03:54.261Z,25.87
2019-02-17T01:06:23.978Z,25.50
2019-02-17T01:08:53.669Z,27.27
2019-02-17T01:11:23.300Z,25.75
2019-02-17T01:13:52.986Z,26.63
2019-02-17T01:16:24.933Z,26.02
2019-02-17T01:18:53.987Z,27.87
2019-02-17T01:21:23.655Z,26.50
2019-02-17T01:23:53.414Z,25.90
2019-02-17T01:26:23.074Z,27.50
2019-02-17T01:28:52.705Z,26.65
2019-02-17T01:31:22.333Z,28.42
2019-02-17T01:33:52.283Z,26.45
2019-02-17T01:36:21.918Z,28.27
2019-02-17T01:38:51.624Z,27.95
2019-02-17T01:41:21.370Z,28.17
2019-02-17T01:43:51.041Z,27.45
2019-02-17T01:46:20.667Z,27.15
2019-02-17T01:48:50.387Z,28.05
2019-02-17T01:51:20.106Z,28.00
2019-02-17T01:53:49.774Z,27.45
2019-02-17T01:56:19.395Z,27.98
2019-02-17T01:58:49.174Z,28.10
2019-02-17T02:01:18.853Z,28.07
2019-02-17T02:03:48.498Z,29.37
2019-02-17T02:06:18.228Z,30.00
2019-02-17T02:08:47.946Z,30.08
2019-02-17T02:11:17.734Z,29.95
2019-02-17T02:13:47.345Z,28.87
2019-02-17T02:16:17.006Z,30.43
2019-02-17T02:18:46.757Z,30.37
2019-02-17T02:21:16.395Z,30.52
2019-02-17T02:23:46.081Z,30.90
2019-02-17T02:26:15.769Z,30.95
2019-02-17T02:28:45.491Z,30.07
2019-02-17T02:31:15.269Z,29.67
2019-02-17T02:33:44.907Z,29.63
2019-02-17T02:36:15.671Z,29.57
2019-02-17T02:38:45.402Z,29.77
2019-02-17T02:41:15.129Z,30.53
2019-02-17T02:43:44.910Z,28.73
2019-02-17T02:46:14.515Z,29.77
2019-02-17T02:48:44.214Z,28.75
2019-02-17T02:51:13.839Z,28.02
2019-02-17T02:53:43.540Z,27.77
2019-02-17T02:56:13.198Z,27.70
2019-02-17T02:58:42.869Z,27.93
2019-02-17T03:01:13.445Z,27.70
2019-02-17T03:03:45.870Z,28.62
2019-02-17T03:06:33.573Z,25.08
2019-02-17T03:09:04.375Z,25.70
2019-02-17T03:11:34.056Z,27.25
2019-02-17T03:14:03.746Z,25.92
2019-02-17T03:16:33.394Z,26.33
2019-02-17T03:19:03.087Z,26.68
2019-02-17T03:21:32.797Z,27.27
2019-02-17T03:24:02.492Z,27.32
2019-02-17T03:26:32.197Z,26.60
2019-02-17T03:29:01.924Z,25.08
2019-02-17T03:31:31.702Z,26.97
2019-02-17T03:34:01.382Z,26.15
2019-02-17T03:36:31.069Z,27.48
2019-02-17T03:39:00.754Z,26.75
2019-02-17T03:41:30.472Z,27.13
2019-02-17T03:44:00.229Z,26.37
2019-02-17T03:46:30.010Z,26.70
2019-02-17T03:48:59.694Z,25.65
2019-02-17T03:51:29.403Z,25.82
2019-02-17T03:53:59.103Z,24.87
2019-02-17T03:56:28.805Z,25.77
2019-02-17T03:58:58.511Z,25.75
2019-02-17T04:01:28.121Z,25.32
2019-02-17T04:03:57.830Z,25.72
2019-02-17T04:06:27.449Z,26.52
2019-02-17T04:08:57.229Z,25.85
2019-02-17T04:11:26.935Z,26.37
2019-02-17T04:13:56.565Z,26.17
2019-02-17T04:16:27.213Z,26.87
2019-02-17T04:18:56.915Z,25.17
2019-02-17T04:21:26.550Z,26.00
2019-02-17T04:23:56.373Z,25.88
2019-02-17T04:26:26.118Z,26.33
2019-02-17T04:28:55.781Z,25.90
2019-02-17T04:31:25.490Z,26.07
2019-02-17T04:33:55.206Z,24.67
2019-02-17T04:36:24.847Z,24.50
2019-02-17T04:38:54.514Z,25.37
2019-02-17T04:41:24.225Z,24.15
2019-02-17T04:43:53.945Z,23.83
2019-02-17T04:46:23.634Z,24.02
2019-02-17T04:48:53.335Z,24.40
2019-02-17T04:51:22.967Z,25.53
2019-02-17T04:53:52.667Z,24.72
2019-02-17T04:56:22.370Z,23.62
2019-02-17T04:58:52.063Z,23.60
2019-02-17T05:01:21.763Z,24.07
2019-02-17T05:03:51.441Z,26.15
2019-02-17T05:06:21.122Z,23.33
2019-02-17T05:08:50.933Z,22.77
2019-02-17T05:11:20.638Z,23.00
2019-02-17T05:13:50.365Z,23.22
2019-02-17T05:16:20.103Z,22.67
2019-02-17T05:18:49.787Z,22.40
2019-02-17T05:21:19.491Z,22.15
2019-02-17T05:23:49.198Z,21.70
2019-02-17T05:26:18.918Z,22.27
2019-02-17T05:28:48.644Z,22.70
2019-02-17T05:31:18.323Z,23.18
2019-02-17T05:33:48.014Z,22.73
2019-02-17T05:36:17.980Z,24.10
2019-02-17T05:38:47.761Z,24.72
2019-02-17T05:41:17.750Z,22.77
2019-02-17T05:43:47.806Z,24.52
2019-02-17T05:46:17.476Z,23.57
2019-02-17T05:48:47.187Z,23.57
2019-02-17T05:51:17.103Z,23.77
2019-02-17T05:53:46.761Z,24.40
2019-02-17T05:56:16.445Z,23.80
2019-02-17T05:58:46.210Z,24.57
2019-02-17T06:01:15.861Z,23.80
2019-02-17T06:03:45.646Z,22.32
2019-02-17T06:06:15.474Z,22.50
2019-02-17T06:08:45.242Z,22.70
2019-02-17T06:11:14.957Z,23.43
2019-02-17T06:13:44.657Z,24.25
2019-02-17T06:16:14.383Z,24.02
2019-02-17T06:18:44.036Z,23.67
2019-02-17T06:21:14.846Z,23.47
2019-02-17T06:23:44.577Z,22.55
2019-02-17T06:26:14.306Z,24.15
2019-02-17T06:28:44.076Z,23.25
2019-02-17T06:31:14.797Z,23.42
2019-02-17T06:33:44.703Z,24.43
2019-02-17T06:36:14.526Z,25.23
2019-02-17T06:38:44.183Z,23.07
2019-02-17T06:41:13.898Z,23.15
2019-02-17T06:43:43.683Z,23.22
2019-02-17T06:46:17.650Z,24.35
2019-02-17T06:48:47.588Z,23.17
2019-02-17T06:51:17.307Z,25.48
2019-02-17T06:53:47.031Z,22.87
2019-02-17T06:56:25.426Z,22.95
2019-02-17T06:58:55.065Z,23.77
2019-02-17T07:01:25.113Z,24.00
2019-02-17T07:03:54.918Z,24.18
2019-02-17T07:06:30.585Z,24.82
2019-02-17T07:09:00.341Z,23.55
2019-02-17T07:11:30.118Z,24.03
2019-02-17T07:13:59.873Z,23.53
2019-02-17T07:16:29.591Z,23.90
2019-02-17T07:18:59.253Z,23.50
2019-02-17T07:21:28.979Z,22.75
2019-02-17T07:23:58.654Z,24.17
2019-02-17T07:26:28.399Z,23.33
2019-02-17T07:28:58.078Z,22.63
2019-02-17T07:31:34.641Z,23.63
2019-02-17T07:33:59.278Z,22.80
2019-02-17T07:36:29.004Z,22.55
2019-02-17T07:38:58.824Z,23.03
2019-02-17T07:41:28.545Z,23.87
2019-02-17T07:43:58.225Z,22.03
2019-02-17T07:46:28.095Z,23.47
2019-02-17T07:48:57.781Z,23.30
2019-02-17T07:51:27.482Z,23.17
2019-02-17T07:53:57.207Z,22.33
2019-02-17T07:56:26.857Z,22.87
2019-02-17T07:58:56.559Z,22.27
2019-02-17T08:01:26.337Z,22.90
2019-02-17T08:03:56.105Z,21.82
2019-02-17T08:06:25.862Z,21.63
2019-02-17T08:08:55.706Z,21.73
2019-02-17T08:11:25.365Z,21.97
2019-02-17T08:13:55.053Z,21.43
2019-02-17T08:16:24.767Z,21.62
2019-02-17T08:18:55.455Z,22.57
2019-02-17T08:21:25.279Z,21.65
2019-02-17T08:23:55.084Z,21.97
2019-02-17T08:26:25.154Z,21.12
2019-02-17T08:28:54.890Z,20.63
2019-02-17T08:31:24.565Z,21.10
2019-02-17T08:33:54.267Z,20.60
2019-02-17T08:36:24.077Z,21.55
2019-02-17T08:38:54.551Z,20.90
2019-02-17T08:41:24.210Z,22.57
2019-02-17T08:43:53.825Z,20.90
2019-02-17T08:46:23.569Z,20.77
2019-02-17T08:48:55.362Z,21.37
2019-02-17T08:51:26.058Z,21.42
2019-02-17T08:53:55.653Z,22.17
2019-02-17T08:56:25.340Z,22.17
2019-02-17T08:58:55.552Z,21.17
2019-02-17T09:01:31.732Z,21.15
2019-02-17T09:04:01.531Z,20.35
2019-02-17T09:06:31.164Z,20.57
2019-02-17T09:09:00.849Z,20.13
2019-02-17T09:11:32.069Z,19.67
2019-02-17T09:14:01.667Z,19.52
2019-02-17T09:16:31.355Z,20.10
2019-02-17T09:19:01.030Z,19.12
2019-02-17T09:21:30.752Z,20.30
2019-02-17T09:24:00.479Z,19.25
2019-02-17T09:26:30.185Z,19.92
2019-02-17T09:28:59.860Z,19.50
2019-02-17T09:31:29.490Z,18.55
2019-02-17T09:33:59.240Z,19.70
2019-02-17T09:36:28.885Z,19.00
2019-02-17T09:38:58.662Z,18.10
2019-02-17T09:41:28.314Z,18.05
2019-02-17T09:43:58.019Z,19.45
2019-02-17T09:46:27.630Z,19.60
2019-02-17T09:48:57.330Z,19.23
2019-02-17T09:51:26.960Z,19.00
2019-02-17T09:53:56.830Z,19.82
2019-02-17T09:56:26.578Z,18.55
2019-02-17T09:58:56.273Z,19.92
2019-02-17T10:01:25.901Z,18.02
2019-02-17T10:03:55.586Z,18.35
2019-02-17T10:06:25.294Z,18.80
2019-02-17T10:08:54.932Z,19.85
2019-02-17T10:11:24.615Z,20.62
2019-02-17T10:13:54.247Z,19.55
2019-02-17T10:16:24.013Z,21.27
2019-02-17T10:18:53.661Z,19.98
2019-02-17T10:21:23.389Z,19.77
2019-02-17T10:23:53.089Z,22.40
2019-02-17T10:26:22.910Z,20.85
2019-02-17T10:28:52.626Z,21.67
2019-02-17T10:31:22.407Z,21.37
2019-02-17T10:33:52.038Z,23.00
2019-02-17T10:36:21.783Z,22.75
2019-02-17T10:38:51.631Z,22.30
2019-02-17T10:41:21.300Z,21.33
2019-02-17T10:43:50.941Z,20.50
2019-02-17T10:46:20.654Z,22.07
2019-02-17T10:48:51.306Z,23.45
2019-02-17T10:51:21.017Z,21.70
2019-02-17T10:53:50.735Z,22.27
2019-02-17T10:56:20.427Z,21.95
2019-02-17T10:58:50.253Z,23.25
2019-02-17T11:01:19.950Z,23.17
2019-02-17T11:04:06.798Z,23.85
2019-02-17T11:06:36.478Z,24.05
2019-02-17T11:09:20.054Z,21.42
2019-02-17T11:11:49.950Z,20.55
2019-02-17T11:14:19.745Z,21.85
2019-02-17T11:16:51.261Z,21.68
2019-02-17T11:19:20.915Z,20.87
2019-02-17T11:21:50.613Z,21.20
2019-02-17T11:24:20.401Z,22.25
2019-02-17T11:26:50.121Z,19.52
2019-02-17T11:29:19.905Z,18.95
2019-02-17T11:31:49.713Z,19.75
2019-02-17T11:34:20.410Z,19.48
2019-02-17T11:36:50.336Z,19.82
2019-02-17T11:39:20.806Z,20.00
2019-02-17T11:41:50.496Z,20.23
2019-02-17T11:44:20.589Z,19.42
2019-02-17T11:46:50.290Z,19.02
2019-02-17T11:49:20.002Z,19.33
2019-02-17T11:51:49.765Z,18.80
2019-02-17T11:54:19.534Z,20.52
2019-02-17T11:56:49.207Z,18.50
2019-02-17T11:59:18.889Z,20.27
2019-02-17T12:01:48.598Z,20.12
2019-02-17T12:04:18.263Z,17.27
2019-02-17T12:06:47.971Z,16.80
2019-02-17T12:09:17.743Z,18.98
2019-02-17T12:11:47.546Z,16.52
2019-02-17T12:14:17.204Z,15.75
2019-02-17T12:16:46.991Z,17.80
2019-02-17T12:19:17.028Z,16.87
2019-02-17T12:21:52.285Z,16.48
2019-02-17T12:24:29.110Z,15.63
2019-02-17T12:27:20.948Z,15.05
2019-02-17T12:30:12.017Z,14.13
2019-02-17T12:32:42.062Z,14.58
2019-02-17T12:35:12.058Z,13.37
2019-02-17T12:37:41.934Z,13.40
2019-02-17T12:40:12.495Z,11.53
2019-02-17T12:42:42.517Z,10.48
2019-02-17T12:45:17.461Z,10.40
2019-02-17T12:47:45.502Z,10.75
2019-02-17T12:50:15.226Z,12.13
2019-02-17T12:52:47.791Z,11.97
2019-02-17T12:55:16.443Z,11.60
2019-02-17T12:57:46.202Z,11.78
2019-02-17T13:00:17.820Z,12.87
2019-02-17T13:02:47.491Z,12.80
2019-02-17T13:05:17.133Z,14.10
2019-02-17T13:07:47.088Z,12.55
2019-02-17T13:10:16.890Z,13.33
2019-02-17T13:12:46.634Z,14.20
2019-02-17T13:15:16.324Z,13.67
2019-02-17T13:17:46.088Z,14.65
2019-02-17T13:20:15.936Z,13.37
2019-02-17T13:22:45.674Z,13.58
2019-02-17T13:25:15.566Z,13.87
2019-02-17T13:27:45.369Z,12.73
2019-02-17T13:30:17.476Z,12.78
2019-02-17T13:32:47.217Z,13.95
2019-02-17T13:35:16.914Z,14.63
2019-02-17T13:37:46.599Z,15.90
2019-02-17T13:40:16.222Z,15.97
2019-02-17T13:42:45.922Z,16.67
2019-02-17T13:45:16.670Z,16.93
2019-02-17T13:47:47.358Z,18.70
2019-02-17T13:50:17.121Z,17.57
2019-02-17T13:52:47.742Z,17.45
2019-02-17T13:55:17.475Z,17.30
2019-02-17T13:57:47.194Z,17.45
2019-02-17T14:00:16.925Z,18.33
2019-02-17T14:02:46.610Z,17.45
2019-02-17T14:05:16.486Z,17.83
2019-02-17T14:07:47.188Z,17.73
2019-02-17T14:10:18.024Z,17.63
2019-02-17T14:12:47.634Z,17.50
2019-02-17T14:15:17.380Z,18.83
2019-02-17T14:17:47.164Z,18.15
2019-02-17T14:20:17.066Z,19.93
2019-02-17T14:22:46.702Z,19.45
2019-02-17T14:25:16.472Z,19.00
2019-02-17T14:27:46.482Z,18.50
2019-02-17T14:30:16.558Z,19.13
2019-02-17T14:32:46.286Z,18.82
2019-02-17T14:35:15.993Z,20.45
2019-02-17T14:37:46.762Z,19.12
2019-02-17T14:40:16.418Z,18.93
2019-02-17T14:42:46.345Z,21.52
2019-02-17T14:45:16.168Z,19.42
2019-02-17T14:47:46.028Z,19.00
2019-02-17T14:50:15.698Z,20.80
2019-02-17T14:52:45.459Z,21.37
2019-02-17T14:55:15.268Z,20.73
2019-02-17T14:57:44.910Z,22.48
2019-02-17T15:00:14.801Z,21.43
2019-02-17T15:02:44.579Z,21.17
2019-02-17T15:05:14.417Z,22.80
2019-02-17T15:07:44.187Z,21.05
2019-02-17T15:10:14.036Z,21.17
2019-02-17T15:12:43.720Z,21.85
2019-02-17T15:15:14.510Z,21.13
2019-02-17T15:17:44.198Z,22.55
2019-02-17T15:20:13.874Z,21.23
2019-02-17T15:22:44.485Z,21.55
2019-02-17T15:25:14.211Z,21.80
2019-02-17T15:27:43.899Z,21.62
2019-02-17T15:30:13.918Z,19.77
2019-02-17T15:32:43.638Z,21.20
2019-02-17T15:35:13.293Z,20.37
2019-02-17T15:37:43.993Z,19.42
2019-02-17T15:40:13.717Z,20.47
2019-02-17T15:42:43.632Z,21.27
2019-02-17T15:45:13.656Z,21.27
2019-02-17T15:47:43.295Z,20.52
2019-02-17T15:50:13.120Z,21.10
2019-02-17T15:52:42.915Z,21.80
2019-02-17T15:55:12.829Z,21.80
2019-02-17T15:57:42.454Z,23.80
2019-02-17T16:00:13.261Z,23.07
2019-02-17T16:02:42.892Z,22.70
2019-02-17T16:05:12.774Z,23.23
2019-02-17T16:07:42.571Z,22.10
2019-02-17T16:10:12.283Z,23.30
2019-02-17T16:12:41.936Z,22.52
2019-02-17T16:15:13.467Z,23.57
2019-02-17T16:17:43.105Z,23.40
2019-02-17T16:20:13.386Z,23.23
2019-02-17T16:22:43.116Z,24.67
2019-02-17T16:25:12.957Z,24.17
2019-02-17T16:27:42.670Z,24.45
2019-02-17T16:30:14.252Z,24.67
2019-02-17T16:32:44.090Z,24.50
2019-02-17T16:35:13.810Z,25.97
2019-02-17T16:37:43.478Z,25.33
2019-02-17T16:40:13.407Z,24.37
2019-02-17T16:42:43.075Z,25.90
2019-02-17T16:45:12.851Z,24.80
2019-02-17T16:47:42.599Z,25.07
2019-02-17T16:50:14.823Z,26.20
2019-02-17T16:52:44.581Z,25.10
2019-02-17T16:55:14.369Z,26.00
2019-02-17T16:57:44.102Z,26.27
2019-02-17T17:00:18.047Z,26.33
2019-02-17T17:02:48.029Z,29.13
2019-02-17T17:05:19.839Z,28.80
2019-02-17T17:07:49.662Z,27.70
2019-02-17T17:10:19.367Z,27.23
2019-02-17T17:12:50.181Z,27.07
2019-02-17T17:15:21.247Z,26.80
2019-02-17T17:17:51.092Z,26.90
2019-02-17T17:20:20.831Z,25.97
2019-02-17T17:22:51.520Z,25.40
2019-02-17T17:25:21.345Z,21.90
2019-02-17T17:27:51.119Z,22.80
2019-02-17T17:30:20.765Z,24.80
2019-02-17T17:32:50.515Z,23.13
2019-02-17T17:35:20.202Z,25.03
2019-02-17T17:37:49.908Z,25.07
2019-02-17T17:40:19.702Z,24.00
2019-02-17T17:42:49.401Z,23.97
2019-02-17T17:45:19.214Z,22.70
2019-02-17T17:47:48.984Z,23.37
2019-02-17T17:50:18.786Z,22.27
2019-02-17T17:52:48.582Z,25.00
2019-02-17T17:55:18.277Z,23.07
2019-02-17T17:57:48.027Z,23.53
2019-02-17T18:00:18.822Z,24.67
2019-02-17T18:02:48.635Z,23.80
2019-02-17T18:05:19.440Z,23.07
2019-02-17T18:07:49.149Z,23.53
2019-02-17T18:10:18.978Z,25.23
2019-02-17T18:12:48.790Z,24.93
2019-02-17T18:15:18.672Z,25.03
2019-02-17T18:17:54.687Z,26.17
2019-02-17T18:20:19.995Z,23.53
2019-02-17T18:22:49.690Z,25.07
2019-02-17T18:25:19.451Z,26.40
2019-02-17T18:27:49.114Z,26.70
2019-02-17T18:30:19.033Z,25.73
2019-02-17T18:32:48.882Z,23.77
2019-02-17T18:35:20.711Z,27.10
2019-02-17T18:37:50.498Z,29.27
2019-02-17T18:40:20.404Z,29.03
2019-02-17T18:42:51.052Z,27.40
2019-02-17T18:45:20.878Z,27.57
2019-02-17T18:47:50.755Z,26.90
2019-02-17T18:50:20.517Z,26.57
2019-02-17T18:52:50.395Z,27.37
2019-02-17T18:55:20.250Z,27.73
2019-02-17T18:57:51.171Z,26.87
2019-02-17T19:00:21.327Z,27.95
2019-02-17T19:02:51.273Z,26.70
2019-02-17T19:05:31.064Z,28.73
2019-02-17T19:07:52.713Z,28.73
2019-02-17T19:10:22.473Z,30.63
2019-02-17T19:12:52.173Z,29.93
2019-02-17T19:15:21.962Z,26.70
2019-02-17T19:17:51.703Z,27.33
2019-02-17T19:20:21.586Z,28.20
2019-02-17T19:22:51.353Z,27.27
2019-02-17T19:25:21.082Z,29.37
2019-02-17T19:27:51.808Z,28.83
2019-02-17T19:30:21.546Z,29.00
2019-02-17T19:32:52.325Z,28.57
2019-02-17T19:35:22.142Z,28.10
2019-02-17T19:37:51.839Z,28.60
2019-02-17T19:40:21.573Z,26.73
2019-02-17T19:42:51.342Z,29.70
2019-02-17T19:45:21.034Z,28.73
2019-02-17T19:47:50.828Z,29.53
2019-02-17T19:50:20.445Z,28.83
2019-02-17T19:52:50.246Z,30.30
2019-02-17T19:55:19.869Z,31.77
2019-02-17T19:57:49.510Z,29.00
2019-02-17T20:00:20.258Z,29.60
2019-02-17T20:02:58.746Z,30.90
2019-02-17T20:05:30.617Z,30.47
2019-02-17T20:08:00.589Z,29.90
2019-02-17T20:10:30.327Z,31.27
2019-02-17T20:13:00.058Z,31.03
2019-02-17T20:15:31.162Z,29.30
2019-02-17T20:18:00.886Z,29.63
2019-02-17T20:20:30.577Z,29.73
2019-02-17T20:23:01.420Z,31.57
2019-02-17T20:25:31.077Z,30.27
2019-02-17T20:28:00.817Z,30.67
2019-02-17T20:30:30.509Z,27.70
2019-02-17T20:33:00.361Z,30.87
2019-02-17T20:35:30.195Z,27.87
2019-02-17T20:37:59.906Z,28.80
2019-02-17T20:40:29.661Z,29.93
2019-02-17T20:42:59.343Z,30.27
2019-02-17T20:45:30.273Z,30.10
2019-02-17T20:48:00.118Z,30.60
2019-02-17T20:50:29.811Z,29.30
2019-02-17T20:52:59.634Z,29.00
2019-02-17T20:55:29.405Z,28.57
2019-02-17T20:57:58.996Z,28.43
2019-02-17T21:00:29.034Z,29.60
2019-02-17T21:02:58.909Z,30.17
2019-02-17T21:05:28.626Z,29.43
2019-02-17T21:07:59.398Z,30.30
2019-02-17T21:10:29.147Z,29.87
2019-02-17T21:12:58.958Z,29.87
2019-02-17T21:15:29.569Z,28.17
2019-02-17T21:17:59.307Z,30.03
2019-02-17T21:20:29.050Z,31.47
2019-02-17T21:23:00.751Z,32.03
2019-02-17T21:25:30.490Z,32.93
2019-02-17T21:28:00.139Z,31.83
2019-02-17T21:30:29.753Z,33.07
2019-02-17T21:32:59.554Z,32.60
2019-02-17T21:35:29.188Z,32.50
2019-02-17T21:37:58.931Z,32.27
2019-02-17T21:40:28.671Z,32.47
2019-02-17T21:42:58.316Z,32.63
2019-02-17T21:45:28.010Z,33.57
2019-02-17T21:47:57.623Z,33.57
2019-02-17T21:50:27.424Z,33.27
2019-02-17T21:52:57.132Z,32.73
2019-02-17T21:55:26.847Z,32.20
2019-02-17T21:57:56.477Z,31.17
2019-02-17T22:00:26.257Z,33.07
2019-02-17T22:02:56.163Z,33.83
2019-02-17T22:05:25.797Z,34.83
2019-02-17T22:07:55.510Z,35.30
2019-02-17T22:10:28.394Z,33.20
2019-02-17T22:12:57.987Z,35.10
2019-02-17T22:15:27.655Z,34.73
2019-02-17T22:17:57.402Z,35.10
2019-02-17T22:20:27.138Z,33.67
2019-02-17T22:22:56.844Z,37.20
2019-02-17T22:25:26.556Z,32.83
2019-02-17T22:27:56.349Z,33.50
2019-02-17T22:30:25.971Z,33.77
2019-02-17T22:32:55.666Z,36.47
2019-02-17T22:35:25.322Z,36.10
2019-02-17T22:37:55.022Z,36.13
2019-02-17T22:40:25.744Z,34.83
2019-02-17T22:42:55.524Z,34.40
2019-02-17T22:45:25.141Z,33.23
2019-02-17T22:47:54.853Z,31.60
2019-02-17T22:50:25.593Z,33.80
2019-02-17T22:52:55.262Z,32.37
2019-02-17T22:55:24.923Z,33.03
2019-02-17T22:57:54.711Z,32.53
2019-02-17T23:00:47.584Z,33.70
2019-02-17T23:03:17.364Z,35.33
2019-02-17T23:05:47.097Z,33.53
2019-02-17T23:08:17.796Z,33.60
2019-02-17T23:10:47.448Z,31.03
2019-02-17T23:13:17.153Z,33.37
2019-02-17T23:15:46.903Z,32.93
2019-02-17T23:18:17.577Z,32.73
2019-02-17T23:20:47.281Z,32.47
2019-02-17T23:23:16.994Z,36.73
2019-02-17T23:25:46.629Z,33.90
2019-02-17T23:28:17.246Z,33.77
2019-02-17T23:30:46.965Z,33.77
2019-02-17T23:33:16.759Z,35.50
2019-02-17T23:35:46.388Z,33.50
2019-02-17T23:38:16.150Z,33.03
2019-02-17T23:40:45.794Z,31.03
2019-02-17T23:43:15.474Z,32.50
2019-02-17T23:45:45.119Z,30.67
2019-02-17T23:48:14.798Z,32.03
2019-02-17T23:50:44.414Z,30.93
2019-02-17T23:53:14.046Z,31.37
2019-02-17T23:55:43.757Z,33.27
2019-02-17T23:58:13.461Z,30.27
